Time;durP1;ratioP1;P1;durP2;ratioP2;P2;SDS_P1;SDS_P2;PMS_P1;PMS_P2;Temp;Humidity;BMP_temperature;BMP_pressure;BME280_temperature;BME280_humidity;BME280_pressure;Samples;Min_cycle;Max_cycle;Signal;HPM_P1;HPM_P2
2021/09/01 00:01:08;;;;;;;5.60;4.60;;;12.20;99.90;;;;;;5072446;28;20212;-63
2021/09/01 00:03:34;;;;;;;4.87;4.40;;;12.20;99.90;;;;;;5073433;28;20177;-64
2021/09/01 00:05:59;;;;;;;5.73;4.80;;;12.10;99.90;;;;;;5073210;28;20194;-66
2021/09/01 00:08:25;;;;;;;5.97;4.80;;;12.10;99.90;;;;;;5072856;28;20326;-66
2021/09/01 00:10:51;;;;;;;6.73;4.93;;;12.10;99.90;;;;;;5073148;28;20224;-65
2021/09/01 00:13:17;;;;;;;8.80;4.70;;;12.10;99.90;;;;;;5073214;28;20172;-64
2021/09/01 00:15:46;;;;;;;6.27;4.90;;;12.10;99.90;;;;;;5059777;28;20267;-66
2021/09/01 00:18:11;;;;;;;6.88;4.78;;;12.00;99.90;;;;;;5052587;28;20404;-64
2021/09/01 00:20:37;;;;;;;5.50;5.00;;;12.00;99.90;;;;;;5053006;28;20181;-66
2021/09/01 00:23:03;;;;;;;7.00;4.80;;;12.00;99.90;;;;;;5053086;28;20171;-66
2021/09/01 00:25:28;;;;;;;8.73;5.53;;;12.00;99.90;;;;;;5053291;28;20171;-65
2021/09/01 00:27:54;;;;;;;8.00;6.13;;;12.00;99.90;;;;;;5052678;28;20188;-65
2021/09/01 00:30:20;;;;;;;5.20;4.80;;;11.90;99.90;;;;;;5066408;28;20197;-66
2021/09/01 00:32:45;;;;;;;6.33;5.00;;;11.90;99.90;;;;;;5072719;28;20185;-66
2021/09/01 00:35:11;;;;;;;7.50;5.50;;;11.90;99.90;;;;;;5073277;28;20500;-67
2021/09/01 00:37:38;;;;;;;6.78;4.25;;;11.90;99.90;;;;;;5072549;28;20181;-66
2021/09/01 00:40:04;;;;;;;6.18;5.38;;;11.90;99.90;;;;;;5072852;28;20686;-65
2021/09/01 00:42:29;;;;;;;6.50;5.32;;;11.90;99.90;;;;;;5073019;28;20204;-67
2021/09/01 00:44:55;;;;;;;6.70;5.67;;;11.80;99.90;;;;;;5060292;28;20668;-65
2021/09/01 00:47:24;;;;;;;4.67;3.97;;;11.80;99.90;;;;;;5052373;28;20539;-65
2021/09/01 00:49:51;;;;;;;5.82;5.22;;;11.80;99.90;;;;;;5052892;28;20194;-65
2021/09/01 00:52:17;;;;;;;7.80;5.63;;;11.80;99.90;;;;;;5052829;28;20223;-65
2021/09/01 00:54:47;;;;;;;7.93;5.20;;;11.80;99.90;;;;;;5052656;28;20174;-65
2021/09/01 00:57:14;;;;;;;6.47;5.57;;;11.80;99.90;;;;;;5052628;28;20174;-66
2021/09/01 00:59:43;;;;;;;7.97;5.60;;;11.70;99.90;;;;;;5064589;28;20558;-65
2021/09/01 01:02:09;;;;;;;7.68;5.65;;;11.70;99.90;;;;;;5073282;28;20184;-65
2021/09/01 01:04:35;;;;;;;4.10;3.80;;;11.70;99.90;;;;;;5072723;28;20165;-66
2021/09/01 01:07:03;;;;;;;5.80;4.80;;;11.70;99.90;;;;;;5072289;28;20176;-66
2021/09/01 01:09:34;;;;;;;5.25;4.60;;;11.70;99.90;;;;;;5072702;28;20184;-66
2021/09/01 01:12:03;;;;;;;6.88;6.28;;;11.70;99.90;;;;;;5076188;28;20200;-66
2021/09/01 01:14:30;;;;;;;5.90;4.43;;;11.60;99.90;;;;;;5063532;28;20174;-65
2021/09/01 01:16:56;;;;;;;6.30;4.82;;;11.60;99.90;;;;;;5055838;28;20176;-65
2021/09/01 01:19:21;;;;;;;4.93;4.50;;;11.60;99.90;;;;;;5055032;28;20189;-67
2021/09/01 01:21:47;;;;;;;6.47;4.60;;;11.60;99.90;;;;;;5056421;28;20169;-65
2021/09/01 01:24:13;;;;;;;6.17;5.10;;;11.50;99.90;;;;;;5056199;28;20172;-67
2021/09/01 01:26:39;;;;;;;5.67;4.70;;;11.50;99.90;;;;;;5055951;28;20445;-67
2021/09/01 01:29:09;;;;;;;5.40;4.90;;;11.40;99.90;;;;;;5067587;28;20269;-65
2021/09/01 01:31:37;;;;;;;5.13;4.57;;;11.40;99.90;;;;;;5075953;28;20212;-66
2021/09/01 01:34:03;;;;;;;6.55;4.15;;;11.30;99.90;;;;;;5068574;28;20185;-66
2021/09/01 01:36:28;;;;;;;5.87;5.27;;;11.30;99.90;;;;;;5056024;28;20273;-66
2021/09/01 01:38:54;;;;;;;6.63;4.77;;;11.20;99.90;;;;;;5055565;28;20193;-67
2021/09/01 01:41:20;;;;;;;8.07;5.38;;;11.20;99.90;;;;;;5056076;28;20532;-67
2021/09/01 01:43:47;;;;;;;5.00;4.50;;;11.20;99.90;;;;;;5055920;28;20173;-66
2021/09/01 01:46:14;;;;;;;5.32;4.82;;;11.20;99.90;;;;;;5055803;28;20902;-67
2021/09/01 01:48:39;;;;;;;4.50;4.05;;;11.20;99.90;;;;;;5056357;28;20276;-67
2021/09/01 01:51:05;;;;;;;4.97;4.40;;;11.20;99.90;;;;;;5055753;28;20288;-66
2021/09/01 01:53:31;;;;;;;3.87;3.43;;;11.10;99.90;;;;;;5055693;28;20169;-66
2021/09/01 01:55:57;;;;;;;4.90;3.90;;;11.10;99.90;;;;;;5055714;28;20162;-65
2021/09/01 01:58:22;;;;;;;6.83;5.00;;;11.20;99.90;;;;;;5055117;28;20193;-66
2021/09/01 02:00:49;;;;;;;4.53;3.80;;;11.10;99.90;;;;;;5055364;28;20420;-67
2021/09/01 02:03:16;;;;;;;5.32;4.40;;;11.10;99.90;;;;;;5061060;28;20603;-66
2021/09/01 02:05:41;;;;;;;4.38;3.97;;;11.10;99.90;;;;;;5075587;28;20242;-66
2021/09/01 02:08:07;;;;;;;7.53;4.60;;;11.10;99.90;;;;;;5074879;28;20524;-65
2021/09/01 02:10:32;;;;;;;4.10;3.70;;;11.10;99.90;;;;;;5075427;28;20181;-66
2021/09/01 02:12:58;;;;;;;4.50;4.10;;;11.10;99.90;;;;;;5073605;28;20521;-67
2021/09/01 02:15:24;;;;;;;3.97;3.57;;;11.10;99.90;;;;;;5075389;28;20536;-67
2021/09/01 02:17:50;;;;;;;4.83;4.40;;;11.10;99.90;;;;;;5074943;28;20168;-66
2021/09/01 02:20:16;;;;;;;5.73;3.70;;;11.00;99.90;;;;;;5075120;28;20815;-67
2021/09/01 02:22:42;;;;;;;4.03;3.67;;;11.00;99.90;;;;;;5072737;28;20504;-67
2021/09/01 02:25:10;;;;;;;4.53;3.60;;;11.00;99.90;;;;;;5075221;28;20592;-65
2021/09/01 02:27:36;;;;;;;4.93;4.07;;;10.90;99.90;;;;;;5058289;28;20209;-68
2021/09/01 02:30:04;;;;;;;4.78;4.07;;;10.90;99.90;;;;;;5054744;28;20204;-66
2021/09/01 02:32:29;;;;;;;3.85;3.55;;;10.90;99.90;;;;;;5054758;28;20185;-67
2021/09/01 02:34:55;;;;;;;4.33;3.57;;;11.00;99.90;;;;;;5054667;28;20650;-67
2021/09/01 02:37:21;;;;;;;4.70;4.40;;;10.90;99.90;;;;;;5054496;28;20169;-66
2021/09/01 02:39:47;;;;;;;3.57;3.10;;;10.90;99.90;;;;;;5054573;28;20216;-67
2021/09/01 02:42:12;;;;;;;4.13;3.80;;;10.90;99.90;;;;;;5069478;28;20174;-67
2021/09/01 02:44:38;;;;;;;4.10;3.70;;;10.80;99.90;;;;;;5074963;28;20603;-64
2021/09/01 02:47:04;;;;;;;3.43;3.13;;;10.80;99.90;;;;;;5074177;28;20635;-66
2021/09/01 02:49:29;;;;;;;4.45;3.60;;;10.80;99.90;;;;;;5074605;28;20185;-66
2021/09/01 02:51:55;;;;;;;5.17;4.67;;;10.80;99.90;;;;;;5074328;28;20203;-66
2021/09/01 02:54:21;;;;;;;5.60;4.17;;;10.80;99.90;;;;;;5073210;28;20173;-64
2021/09/01 02:56:46;;;;;;;5.47;4.00;;;10.80;99.90;;;;;;5058521;28;20165;-65
2021/09/01 02:59:12;;;;;;;6.80;3.83;;;10.80;99.90;;;;;;5054320;28;20228;-66
2021/09/01 03:01:38;;;;;;;3.43;3.10;;;10.70;99.90;;;;;;5054434;28;20173;-64
2021/09/01 03:04:04;;;;;;;3.27;2.97;;;10.70;99.90;;;;;;5054318;28;20412;-66
2021/09/01 03:06:30;;;;;;;4.87;3.90;;;10.70;99.90;;;;;;5054029;28;20502;-69
2021/09/01 03:08:55;;;;;;;4.83;4.07;;;10.80;99.90;;;;;;5054006;28;20197;-66
2021/09/01 03:11:21;;;;;;;5.40;3.97;;;10.80;99.90;;;;;;5067595;28;20722;-65
2021/09/01 03:13:46;;;;;;;3.40;3.07;;;10.80;99.90;;;;;;5072812;28;20169;-65
2021/09/01 03:16:12;;;;;;;4.93;4.13;;;10.90;99.90;;;;;;5073988;28;20160;-65
2021/09/01 03:18:38;;;;;;;4.93;4.43;;;10.80;99.90;;;;;;5073590;28;20690;-65
2021/09/01 03:21:03;;;;;;;4.67;3.77;;;10.80;99.90;;;;;;5073993;28;20259;-66
2021/09/01 03:23:29;;;;;;;4.33;3.67;;;10.90;99.90;;;;;;5074050;28;20193;-67
2021/09/01 03:25:55;;;;;;;4.00;3.60;;;10.90;99.90;;;;;;5061362;28;20205;-65
2021/09/01 03:28:20;;;;;;;4.30;3.90;;;10.90;99.90;;;;;;5052214;28;20197;-66
2021/09/01 03:30:46;;;;;;;4.70;3.90;;;10.90;99.90;;;;;;5053649;28;20209;-64
2021/09/01 03:33:11;;;;;;;5.57;3.87;;;10.90;99.90;;;;;;5053447;28;20190;-65
2021/09/01 03:35:37;;;;;;;7.23;4.97;;;10.90;99.90;;;;;;5053969;28;20575;-66
2021/09/01 03:38:03;;;;;;;4.63;4.23;;;10.90;99.90;;;;;;5053099;28;20169;-65
2021/09/01 03:40:29;;;;;;;3.73;3.43;;;10.90;99.90;;;;;;5064168;28;20185;-66
2021/09/01 03:42:54;;;;;;;4.53;4.13;;;11.00;99.90;;;;;;5073762;28;20168;-67
2021/09/01 03:45:20;;;;;;;5.13;3.97;;;11.00;99.90;;;;;;5073591;28;20178;-66
2021/09/01 03:47:46;;;;;;;5.10;3.90;;;11.10;99.90;;;;;;5073179;28;20632;-65
2021/09/01 03:50:14;;;;;;;8.83;4.00;;;11.10;99.90;;;;;;5073258;28;20200;-65
2021/09/01 03:52:39;;;;;;;7.82;4.90;;;11.10;99.90;;;;;;5073218;28;20160;-66
2021/09/01 03:55:08;;;;;;;6.33;4.00;;;11.10;99.90;;;;;;5061623;28;20281;-64
2021/09/01 03:57:37;;;;;;;7.57;3.95;;;11.10;99.90;;;;;;5052917;28;20165;-65
2021/09/01 04:00:05;;;;;;;8.20;4.30;;;11.10;99.90;;;;;;5051861;28;20251;-64
2021/09/01 04:02:30;;;;;;;8.85;4.25;;;11.10;99.90;;;;;;5052224;28;20196;-65
2021/09/01 04:04:56;;;;;;;4.27;3.77;;;11.10;99.90;;;;;;5053408;28;20197;-65
2021/09/01 04:07:21;;;;;;;4.20;3.90;;;11.10;99.90;;;;;;5051527;28;20177;-67
2021/09/01 04:09:47;;;;;;;4.10;3.37;;;11.10;99.90;;;;;;5053088;28;20181;-65
2021/09/01 04:12:13;;;;;;;5.70;3.90;;;11.20;99.90;;;;;;5053125;28;20169;-65
2021/09/01 04:14:38;;;;;;;3.23;3.03;;;11.20;99.90;;;;;;5061145;28;20172;-65
2021/09/01 04:17:04;;;;;;;15.37;5.20;;;11.30;99.90;;;;;;5072876;28;20596;-64
2021/09/01 04:19:30;;;;;;;15.13;4.47;;;11.30;99.90;;;;;;5071751;28;20234;-64
2021/09/01 04:21:56;;;;;;;4.97;4.47;;;11.30;99.90;;;;;;5073156;28;20175;-64
2021/09/01 04:24:21;;;;;;;3.80;3.50;;;11.40;99.90;;;;;;5073018;28;20569;-64
2021/09/01 04:26:50;;;;;;;6.73;4.27;;;11.40;99.90;;;;;;5071415;28;20271;-65
2021/09/01 04:29:16;;;;;;;11.38;5.05;;;11.40;99.90;;;;;;5064255;28;20208;-65
2021/09/01 04:31:42;;;;;;;14.27;5.70;;;11.40;99.90;;;;;;5052891;28;20201;-65
2021/09/01 04:34:08;;;;;;;3.13;2.92;;;11.40;99.90;;;;;;5052907;28;20355;-64
2021/09/01 04:36:34;;;;;;;4.17;3.67;;;11.40;99.90;;;;;;5052585;28;20224;-69
2021/09/01 04:38:59;;;;;;;10.57;5.13;;;11.40;99.90;;;;;;5052831;28;20178;-65
2021/09/01 04:41:25;;;;;;;4.90;4.40;;;11.40;99.90;;;;;;5052926;28;20170;-65
2021/09/01 04:43:51;;;;;;;4.70;4.10;;;11.40;99.90;;;;;;5059795;28;20186;-64
2021/09/01 04:46:16;;;;;;;3.87;3.50;;;11.40;99.90;;;;;;5075339;28;20674;-65
2021/09/01 04:48:42;;;;;;;6.77;4.57;;;11.40;99.90;;;;;;5075236;28;20443;-66
2021/09/01 04:51:08;;;;;;;9.77;5.40;;;11.40;99.90;;;;;;5076753;28;20218;-67
2021/09/01 04:53:33;;;;;;;6.23;4.57;;;11.50;99.90;;;;;;5075447;28;20530;-67
2021/09/01 04:55:59;;;;;;;7.37;5.27;;;11.60;99.90;;;;;;5076728;28;20174;-66
2021/09/01 04:58:25;;;;;;;5.70;5.10;;;11.60;99.90;;;;;;5070316;28;20190;-64
2021/09/01 05:00:50;;;;;;;7.60;5.40;;;11.60;99.90;;;;;;5059783;28;20185;-66
2021/09/01 05:03:16;;;;;;;5.93;3.50;;;11.60;99.90;;;;;;5076536;28;20172;-65
2021/09/01 05:05:42;;;;;;;8.27;5.40;;;11.60;99.90;;;;;;5076606;28;20172;-65
2021/09/01 05:08:07;;;;;;;19.73;6.47;;;11.70;99.90;;;;;;5076019;28;20173;-65
2021/09/01 05:10:33;;;;;;;10.30;4.63;;;11.70;99.90;;;;;;5076428;28;20215;-66
2021/09/01 05:12:58;;;;;;;13.77;4.57;;;11.70;99.90;;;;;;5072259;28;20177;-66
2021/09/01 05:15:24;;;;;;;8.93;5.30;;;11.70;99.90;;;;;;5056405;28;20169;-64
2021/09/01 05:17:50;;;;;;;6.53;4.47;;;11.70;99.90;;;;;;5056050;28;20624;-66
2021/09/01 05:20:16;;;;;;;11.30;4.30;;;11.80;99.90;;;;;;5056237;28;20264;-64
2021/09/01 05:22:45;;;;;;;3.72;3.33;;;11.80;99.90;;;;;;5056134;28;20535;-65
2021/09/01 05:25:16;;;;;;;6.25;4.88;;;11.90;99.90;;;;;;5056155;28;20167;-65
2021/09/01 05:27:44;;;;;;;3.45;3.22;;;11.90;99.90;;;;;;5059320;28;20205;-65
2021/09/01 05:30:12;;;;;;;5.85;4.38;;;12.00;99.90;;;;;;5075919;28;20288;-65
2021/09/01 05:32:40;;;;;;;11.00;5.60;;;12.00;99.90;;;;;;5074571;28;20196;-65
2021/09/01 05:35:08;;;;;;;41.00;6.75;;;12.00;99.90;;;;;;5075440;28;20973;-65
2021/09/01 05:37:36;;;;;;;4.07;3.20;;;12.00;99.90;;;;;;5075549;28;20223;-67
2021/09/01 05:40:03;;;;;;;6.82;4.45;;;12.00;99.90;;;;;;5075383;28;20192;-64
2021/09/01 05:42:31;;;;;;;3.83;3.53;;;12.00;99.90;;;;;;5075427;28;20178;-64
2021/09/01 05:44:59;;;;;;;10.32;4.72;;;12.00;99.90;;;;;;5075834;28;20161;-66
2021/09/01 05:47:25;;;;;;;6.07;4.25;;;12.10;99.90;;;;;;5075354;28;20194;-63
2021/09/01 05:49:52;;;;;;;13.73;6.17;;;12.20;99.90;;;;;;5075511;28;20193;-66
2021/09/01 05:52:18;;;;;;;6.65;4.70;;;12.20;99.90;;;;;;5075471;28;20829;-66
2021/09/01 05:54:50;;;;;;;6.20;4.00;;;12.30;99.90;;;;;;5060527;28;20233;-64
2021/09/01 05:57:24;;;;;;;5.97;3.72;;;12.30;99.90;;;;;;5054787;28;20816;-64
2021/09/01 06:00:08;;;;;;;8.60;5.47;;;12.30;99.90;;;;;;5055247;28;20249;-66
2021/09/01 06:02:53;;;;;;;8.15;5.07;;;12.30;99.90;;;;;;5055495;28;20431;-66
2021/09/01 06:05:21;;;;;;;8.80;5.80;;;12.40;99.90;;;;;;5056720;28;20180;-66
2021/09/01 06:07:51;;;;;;;11.55;6.43;;;12.30;99.90;;;;;;5072142;28;20174;-66
2021/09/01 06:10:22;;;;;;;12.97;6.17;;;12.40;99.90;;;;;;5072830;28;20190;-66
2021/09/01 06:12:52;;;;;;;7.00;5.00;;;12.40;99.90;;;;;;5075623;28;20395;-64
2021/09/01 06:15:18;;;;;;;16.40;7.40;;;12.40;99.90;;;;;;5057575;28;20467;-63
2021/09/01 06:17:43;;;;;;;7.97;4.20;;;12.50;99.90;;;;;;5054855;28;20441;-64
2021/09/01 06:20:10;;;;;;;11.83;7.07;;;12.50;99.90;;;;;;5054999;28;20190;-63
2021/09/01 06:22:36;;;;;;;12.47;6.90;;;12.50;99.90;;;;;;5055203;28;20175;-63
2021/09/01 06:25:02;;;;;;;14.47;7.60;;;12.60;99.90;;;;;;5068551;28;20428;-63
2021/09/01 06:27:29;;;;;;;18.03;5.77;;;12.60;99.90;;;;;;5074784;28;20634;-63
2021/09/01 06:29:55;;;;;;;19.03;8.20;;;12.60;99.90;;;;;;5073580;28;20439;-62
2021/09/01 06:32:21;;;;;;;8.60;5.77;;;12.60;99.90;;;;;;5074775;28;20451;-62
2021/09/01 06:34:46;;;;;;;5.77;4.93;;;12.70;99.90;;;;;;5073627;28;20646;-62
2021/09/01 06:37:12;;;;;;;7.07;5.67;;;12.70;99.90;;;;;;5066551;28;20207;-62
2021/09/01 06:39:38;;;;;;;7.60;5.80;;;12.80;99.90;;;;;;5067112;28;20187;-65
2021/09/01 06:42:04;;;;;;;9.33;6.60;;;12.90;99.90;;;;;;5074600;28;20250;-63
2021/09/01 06:44:29;;;;;;;7.17;5.77;;;12.90;99.90;;;;;;5074576;28;20174;-64
2021/09/01 06:46:55;;;;;;;10.00;6.40;;;13.00;99.90;;;;;;5074356;28;20449;-64
2021/09/01 06:49:21;;;;;;;6.67;6.03;;;13.10;99.90;;;;;;5073279;28;20199;-63
2021/09/01 06:51:46;;;;;;;7.60;6.20;;;13.10;99.90;;;;;;5074268;28;20193;-65
2021/09/01 06:54:12;;;;;;;11.97;6.33;;;13.10;99.90;;;;;;5073623;28;20167;-62
2021/09/01 06:56:37;;;;;;;22.03;6.83;;;13.20;99.90;;;;;;5073766;28;20226;-62
2021/09/01 06:59:03;;;;;;;7.40;5.60;;;13.20;99.90;;;;;;5073980;28;20665;-62
2021/09/01 07:01:29;;;;;;;7.57;5.80;;;13.20;99.90;;;;;;5074166;28;20173;-62
2021/09/01 07:03:56;;;;;;;7.37;6.27;;;13.30;99.90;;;;;;5074261;28;20183;-62
2021/09/01 07:06:22;;;;;;;24.53;7.00;;;13.40;99.90;;;;;;5074314;28;20253;-62
2021/09/01 07:08:48;;;;;;;18.13;7.47;;;13.40;99.90;;;;;;5061426;28;20435;-63
2021/09/01 07:11:14;;;;;;;20.10;6.53;;;13.50;99.90;;;;;;5053304;28;20459;-62
2021/09/01 07:13:39;;;;;;;5.40;4.57;;;13.60;99.90;;;;;;5061808;28;20945;-64
2021/09/01 07:16:06;;;;;;;11.90;6.50;;;13.60;99.90;;;;;;5073125;28;20175;-63
2021/09/01 07:18:32;;;;;;;9.17;5.70;;;13.70;99.90;;;;;;5073397;28;20547;-63
2021/09/01 07:20:57;;;;;;;6.40;5.63;;;13.70;99.90;;;;;;5073673;28;20421;-62
2021/09/01 07:23:23;;;;;;;14.43;5.03;;;13.70;99.90;;;;;;5073623;28;20429;-62
2021/09/01 07:25:49;;;;;;;7.40;5.67;;;13.70;99.90;;;;;;5073674;28;20191;-62
2021/09/01 07:28:14;;;;;;;6.43;5.57;;;13.70;99.90;;;;;;5065770;28;20252;-62
2021/09/01 07:30:40;;;;;;;5.97;4.63;;;13.80;99.90;;;;;;5053640;28;20235;-61
2021/09/01 07:33:06;;;;;;;7.40;5.43;;;13.90;99.90;;;;;;5053165;28;20192;-61
2021/09/01 07:35:31;;;;;;;12.93;5.93;;;13.90;99.90;;;;;;5053027;28;20529;-61
2021/09/01 07:37:57;;;;;;;5.37;4.87;;;14.10;99.90;;;;;;5052275;28;20166;-62
2021/09/01 07:40:23;;;;;;;7.63;5.27;;;14.20;99.90;;;;;;5052954;28;20652;-61
2021/09/01 07:42:49;;;;;;;5.73;4.83;;;14.20;99.90;;;;;;5052678;28;20173;-61
2021/09/01 07:45:17;;;;;;;8.80;5.47;;;14.40;99.90;;;;;;5052831;28;20486;-62
2021/09/01 07:47:54;;;;;;;6.57;5.97;;;14.50;99.90;;;;;;5052281;28;20180;-61
2021/09/01 07:50:22;;;;;;;9.83;6.47;;;14.60;99.90;;;;;;5052528;28;20467;-62
2021/09/01 07:52:51;;;;;;;7.80;5.90;;;14.70;99.90;;;;;;5052626;28;20405;-62
2021/09/01 07:55:17;;;;;;;6.60;4.83;;;14.70;99.90;;;;;;5052441;28;20868;-62
2021/09/01 07:57:43;;;;;;;6.30;4.80;;;14.70;99.90;;;;;;5059486;28;20870;-64
2021/09/01 08:00:11;;;;;;;7.20;5.00;;;14.80;99.90;;;;;;5072548;28;20447;-62
2021/09/01 08:02:37;;;;;;;6.63;5.93;;;15.00;99.90;;;;;;5072658;28;20407;-62
2021/09/01 08:05:03;;;;;;;7.47;5.90;;;15.30;99.90;;;;;;5056433;28;20406;-63
2021/09/01 08:07:29;;;;;;;8.30;6.30;;;15.60;99.90;;;;;;5052109;28;20450;-62
2021/09/01 08:09:55;;;;;;;5.17;4.07;;;15.80;99.90;;;;;;5051333;28;20511;-62
2021/09/01 08:12:21;;;;;;;8.00;5.57;;;16.00;99.90;;;;;;5051987;28;20257;-63
2021/09/01 08:14:47;;;;;;;7.50;5.73;;;16.20;99.90;;;;;;5072306;28;20175;-62
2021/09/01 08:17:13;;;;;;;6.70;5.67;;;16.30;99.90;;;;;;5071975;28;20414;-62
2021/09/01 08:19:43;;;;;;;5.70;5.13;;;16.40;99.90;;;;;;5071492;28;20185;-62
2021/09/01 08:22:10;;;;;;;7.70;5.77;;;16.60;99.90;;;;;;5072265;28;20422;-61
2021/09/01 08:24:38;;;;;;;6.70;5.47;;;16.70;99.90;;;;;;5072395;28;20509;-62
2021/09/01 08:27:08;;;;;;;10.70;5.50;;;16.90;99.90;;;;;;5071879;28;20416;-62
2021/09/01 08:29:34;;;;;;;7.60;5.67;;;17.00;99.90;;;;;;5072221;28;20746;-62
2021/09/01 08:32:00;;;;;;;5.43;4.63;;;17.30;99.90;;;;;;5032917;28;1132888;-62
2021/09/01 08:34:26;;;;;;;9.53;6.87;;;17.60;99.90;;;;;;5072762;28;20461;-62
2021/09/01 08:36:52;;;;;;;5.77;4.80;;;18.00;99.90;;;;;;5061437;28;20474;-62
2021/09/01 08:39:18;;;;;;;8.07;5.50;;;18.50;99.90;;;;;;5052702;28;20949;-62
2021/09/01 08:41:46;;;;;;;6.60;5.30;;;19.20;99.90;;;;;;5052984;28;20261;-62
2021/09/01 08:44:11;;;;;;;6.10;5.00;;;20.00;99.90;;;;;;5053015;28;20415;-61
2021/09/01 08:46:38;;;;;;;7.20;4.97;;;20.80;99.90;;;;;;5052538;28;20730;-61
2021/09/01 08:49:07;;;;;;;5.17;4.70;;;21.80;99.90;;;;;;5052497;28;20768;-62
2021/09/01 08:51:33;;;;;;;6.07;5.23;;;22.90;99.90;;;;;;5062255;28;21011;-62
2021/09/01 08:53:59;;;;;;;5.33;4.73;;;24.20;99.90;;;;;;5072882;28;20484;-62
2021/09/01 08:56:26;;;;;;;12.93;5.70;;;25.30;99.90;;;;;;5072801;28;20203;-62
2021/09/01 08:58:52;;;;;;;4.60;4.20;;;26.00;99.90;;;;;;5072268;28;20790;-63
2021/09/01 09:01:41;;;;;;;5.80;5.20;;;26.70;99.50;;;;;;5072787;28;20468;-62
2021/09/01 09:04:29;;;;;;;7.13;6.43;;;27.70;96.40;;;;;;5073021;28;20445;-62
2021/09/01 09:06:56;;;;;;;7.10;6.10;;;28.10;94.30;;;;;;5072089;28;20419;-62
2021/09/01 09:09:28;;;;;;;6.50;5.57;;;28.50;95.10;;;;;;5072730;28;20908;-63
2021/09/01 09:11:55;;;;;;;4.37;4.00;;;29.10;92.80;;;;;;5072230;28;20528;-62
2021/09/01 09:14:31;;;;;;;6.13;5.53;;;29.50;92.80;;;;;;5071135;28;20413;-62
2021/09/01 09:17:10;;;;;;;6.10;5.53;;;30.10;91.30;;;;;;5072268;28;20456;-62
2021/09/01 09:19:53;;;;;;;5.90;5.30;;;30.60;90.50;;;;;;5072233;28;20518;-63
2021/09/01 09:22:21;;;;;;;7.93;5.87;;;31.00;87.30;;;;;;5052415;28;20424;-62
2021/09/01 09:25:05;;;;;;;8.00;7.20;;;31.40;86.40;;;;;;5052462;28;20444;-62
2021/09/01 09:27:47;;;;;;;7.63;6.93;;;31.60;83.20;;;;;;5052116;28;20503;-61
2021/09/01 09:30:40;;;;;;;6.90;6.40;;;31.20;84.60;;;;;;5052049;28;20424;-62
2021/09/01 09:33:08;;;;;;;7.50;6.80;;;30.70;84.00;;;;;;5055764;28;20420;-62
2021/09/01 09:35:45;;;;;;;6.30;5.80;;;30.70;85.10;;;;;;5064521;28;20921;-61
2021/09/01 09:38:13;;;;;;;7.40;6.70;;;31.10;84.70;;;;;;5075460;28;20395;-61
2021/09/01 09:40:38;;;;;;;6.43;5.90;;;31.40;84.00;;;;;;5075991;28;20407;-62
2021/09/01 09:43:21;;;;;;;6.13;5.57;;;31.70;82.80;;;;;;5075800;28;20742;-61
2021/09/01 09:45:49;;;;;;;5.10;4.70;;;31.70;81.40;;;;;;5056021;28;20181;-61
2021/09/01 09:48:32;;;;;;;4.67;4.30;;;32.20;81.30;;;;;;5055245;28;20411;-61
2021/09/01 09:51:01;;;;;;;6.07;5.57;;;32.60;78.00;;;;;;5055858;28;20447;-62
2021/09/01 09:53:38;;;;;;;5.50;5.00;;;33.10;76.90;;;;;;5055588;28;20408;-62
2021/09/01 09:56:09;;;;;;;6.37;5.87;;;33.30;75.30;;;;;;5055554;28;20412;-62
2021/09/01 09:58:38;;;;;;;5.57;5.13;;;33.40;76.30;;;;;;5055215;28;20941;-61
2021/09/01 10:01:08;;;;;;;4.93;4.53;;;33.60;76.90;;;;;;5055184;28;20965;-62
2021/09/01 10:03:35;;;;;;;5.83;5.33;;;33.80;74.30;;;;;;5055418;28;20494;-61
2021/09/01 10:06:04;;;;;;;6.13;5.53;;;33.80;73.20;;;;;;5055430;28;20818;-60
2021/09/01 10:08:32;;;;;;;5.23;4.50;;;33.50;72.00;;;;;;5054909;28;20435;-60
2021/09/01 10:11:02;;;;;;;5.20;4.80;;;33.20;72.10;;;;;;5061221;28;20477;-61
2021/09/01 10:13:29;;;;;;;4.83;4.53;;;33.10;73.60;;;;;;5075051;28;20427;-61
2021/09/01 10:16:10;;;;;;;4.60;4.20;;;33.00;72.80;;;;;;5075275;28;20440;-64
2021/09/01 10:18:39;;;;;;;4.40;4.00;;;32.80;73.90;;;;;;5074556;28;20947;-66
2021/09/01 10:21:07;;;;;;;5.00;4.60;;;32.60;74.40;;;;;;5075194;28;20477;-66
2021/09/01 10:23:44;;;;;;;4.57;4.17;;;32.30;73.70;;;;;;5075174;28;20406;-63
2021/09/01 10:26:32;;;;;;;5.43;5.03;;;31.70;76.50;;;;;;5073920;28;20449;-64
2021/09/01 10:28:59;;;;;;;4.77;4.47;;;31.50;74.50;;;;;;5060958;28;20436;-63
2021/09/01 10:31:30;;;;;;;4.83;4.37;;;30.70;74.80;;;;;;5054694;28;20439;-64
2021/09/01 10:34:01;;;;;;;4.70;4.20;;;30.10;77.50;;;;;;5055019;28;20969;-62
2021/09/01 10:36:27;;;;;;;4.90;4.50;;;29.80;78.50;;;;;;5054645;28;20759;-63
2021/09/01 10:39:08;;;;;;;4.90;4.50;;;29.30;78.70;;;;;;5054440;28;20490;-63
2021/09/01 10:41:34;;;;;;;4.53;4.13;;;28.70;78.80;;;;;;5054743;28;20232;-65
2021/09/01 10:44:06;;;;;;;4.50;4.20;;;27.90;80.50;;;;;;5069138;28;20454;-63
2021/09/01 10:47:21;;;;;;;4.33;3.50;;;27.30;83.80;;;;;;5074353;28;20399;-65
2021/09/01 10:49:57;;;;;;;4.13;3.83;;;27.00;85.40;;;;;;5065437;28;20442;-62
2021/09/01 10:52:22;;;;;;;3.80;3.40;;;26.90;85.00;;;;;;5074204;28;20399;-64
2021/09/01 10:54:49;;;;;;;5.63;4.27;;;26.40;86.80;;;;;;5074448;28;20457;-63
2021/09/01 10:57:22;;;;;;;4.50;3.70;;;26.10;88.60;;;;;;5070285;28;20169;-65
2021/09/01 10:59:48;;;;;;;4.77;2.93;;;25.90;88.10;;;;;;5053734;28;20397;-63
2021/09/01 11:02:21;;;;;;;3.90;3.50;;;25.60;90.00;;;;;;5052652;28;20554;-64
2021/09/01 11:04:54;;;;;;;4.00;3.60;;;26.00;90.80;;;;;;5052880;28;20172;-63
2021/09/01 11:07:29;;;;;;;3.47;3.17;;;26.50;88.70;;;;;;5053791;28;20430;-63
2021/09/01 11:09:57;;;;;;;3.87;3.47;;;26.60;87.00;;;;;;5054021;28;20431;-64
2021/09/01 11:12:23;;;;;;;5.03;3.97;;;26.40;87.30;;;;;;5061416;28;20465;-64
2021/09/01 11:14:51;;;;;;;3.33;3.03;;;26.10;85.90;;;;;;5073694;28;20754;-64
2021/09/01 11:17:21;;;;;;;5.47;4.00;;;25.70;85.90;;;;;;5072224;28;20839;-65
2021/09/01 11:19:49;;;;;;;3.10;2.87;;;25.20;86.10;;;;;;5072145;28;20787;-64
2021/09/01 11:22:20;;;;;;;3.40;3.10;;;24.70;86.90;;;;;;5073771;28;20447;-64
2021/09/01 11:24:48;;;;;;;3.17;2.87;;;24.30;88.30;;;;;;5073622;28;20497;-65
2021/09/01 11:27:15;;;;;;;2.93;2.73;;;23.80;88.10;;;;;;5073156;28;20404;-64
2021/09/01 11:29:41;;;;;;;3.80;3.00;;;23.50;86.80;;;;;;5073760;28;20483;-65
2021/09/01 11:32:07;;;;;;;3.23;2.93;;;23.30;87.10;;;;;;5073703;28;20408;-65
2021/09/01 11:34:33;;;;;;;3.37;2.73;;;23.10;85.80;;;;;;5073625;28;20385;-65
2021/09/01 11:36:59;;;;;;;2.50;2.30;;;23.10;85.50;;;;;;5073295;28;20804;-64
2021/09/01 11:39:25;;;;;;;3.40;3.10;;;23.10;84.70;;;;;;5073540;28;20183;-64
2021/09/01 11:42:02;;;;;;;3.00;2.73;;;23.00;83.90;;;;;;5068539;28;20422;-64
2021/09/01 11:44:29;;;;;;;3.40;2.40;;;22.90;83.80;;;;;;5053574;28;20163;-63
2021/09/01 11:46:55;;;;;;;2.23;2.03;;;22.70;83.80;;;;;;5066137;28;20816;-65
2021/09/01 11:49:21;;;;;;;2.50;2.30;;;22.50;85.10;;;;;;5073581;28;20403;-64
2021/09/01 11:51:49;;;;;;;2.57;2.43;;;22.40;84.80;;;;;;5072080;28;20470;-64
2021/09/01 11:54:15;;;;;;;2.63;2.43;;;22.20;85.30;;;;;;5073074;28;20420;-64
2021/09/01 11:56:41;;;;;;;3.00;2.70;;;22.10;85.30;;;;;;5072436;28;20428;-64
2021/09/01 11:59:12;;;;;;;2.60;2.40;;;22.10;84.70;;;;;;5073083;28;20526;-65
2021/09/01 12:01:49;;;;;;;2.40;2.30;;;22.00;84.90;;;;;;5073338;28;20800;-65
2021/09/01 12:04:16;;;;;;;2.47;1.90;;;22.10;84.10;;;;;;5063244;28;20374;-65
2021/09/01 12:06:50;;;;;;;2.97;2.63;;;22.00;85.80;;;;;;5062418;28;20412;-64
2021/09/01 12:09:18;;;;;;;2.43;2.13;;;21.90;86.80;;;;;;5058733;28;20440;-65
2021/09/01 12:11:57;;;;;;;4.73;2.60;;;22.00;87.30;;;;;;5055856;28;20520;-63
2021/09/01 12:14:28;;;;;;;2.67;2.13;;;22.10;87.70;;;;;;5058738;28;20778;-65
2021/09/01 12:17:20;;;;;;;2.87;2.57;;;22.30;86.80;;;;;;5065976;28;20452;-65
2021/09/01 12:19:59;;;;;;;1.97;1.80;;;22.70;87.90;;;;;;5066123;28;20758;-65
2021/09/01 12:22:40;;;;;;;2.60;2.40;;;22.80;86.60;;;;;;5052869;28;20485;-64
2021/09/01 12:25:11;;;;;;;2.20;2.10;;;22.60;86.80;;;;;;5052762;28;20473;-66
2021/09/01 12:27:39;;;;;;;2.83;2.63;;;22.40;86.90;;;;;;5051322;28;20415;-65
2021/09/01 12:30:10;;;;;;;3.63;2.63;;;22.30;85.90;;;;;;5051392;28;20428;-66
2021/09/01 12:32:36;;;;;;;2.20;2.00;;;22.20;85.50;;;;;;5050609;28;20429;-66
2021/09/01 12:35:07;;;;;;;2.87;2.37;;;22.20;85.20;;;;;;5049578;28;20392;-65
2021/09/01 12:37:38;;;;;;;2.43;2.23;;;22.10;85.00;;;;;;5050798;28;20439;-67
2021/09/01 12:40:08;;;;;;;3.13;2.50;;;22.10;85.40;;;;;;5070842;28;20879;-66
2021/09/01 12:42:43;;;;;;;2.17;2.07;;;22.10;86.30;;;;;;5071467;28;20827;-66
2021/09/01 12:45:15;;;;;;;3.43;2.00;;;22.30;86.50;;;;;;5069164;28;20429;-66
2021/09/01 12:48:00;;;;;;;3.27;3.00;;;22.50;86.60;;;;;;5072421;28;20420;-65
2021/09/01 12:50:36;;;;;;;2.47;2.27;;;22.80;87.00;;;;;;5072952;28;20545;-65